METAR Data
IDs: Format: Raw Decoded Include TAF

Data at: 1310 UTC 26 Feb 2021

METAR for:KC07 (Walton Peak, CO, US)
Text:KC07 261255Z AUTO 29005KT 10SM SCT047 M14/M16 A2978 RMK AO2
Temperature:-14.0°C ( 7°F)
Dewpoint:-16.0°C ( 3°F) [RH = 85%]
Pressure (altimeter):29.78 inches Hg (1008.5 mb)
Winds:from the WNW (290 degrees) at 6 MPH (5 knots; 2.6 m/s)
Visibility:10 or more sm (16+ km)
Ceiling:at least 12,000 feet AGL
Clouds: scattered clouds at 4700 feet AGL
QC Flag:automated observation with no human augmentation